Mississippi Enterprise — WDE2542 — position and weather

sailwx.info

Track history (hours):
 
Tides and Currents Weather Stations Pressure Air Temp Water Temp Dewpoint Dewpoint Depression Visibility Wind Speed Wind Dir Waves Ship Positions

Mississippi Enterprise

Owner: U.S. United Ocean Services, LLC, Tampa, FL. More information available from US FCC via Universal Licensing System and Coast Guard Vessel Documentation Center.

Last reported at 2016-Apr-27 13:33 UTC. Time now 2016-Apr-29 06:09 UTC.
Position N 29°56' W 090°04'.

Length 187 m; draft 11.2 m.

Type: Cargo ship. MMSI: 369813000.

Date/timePositionNaut miles runAvg speedWind from/ knotsBaromVisibWave heightAir tempDewpointWater temp
2016-Apr-27 13:33N 29°56' W 090°04'41910.5
2016-Apr-25 21:33N 27°50' W 082°27'5 5.0
2016-Apr-25 20:31N 27°55' W 082°25'0 0.0
2016-Apr-25 19:31N 27°55' W 082°25'0 0.0
2016-Apr-25 18:31N 27°55' W 082°25'0 0.0
2016-Apr-25 17:31N 27°55' W 082°25'0 0.0
2016-Apr-25 16:31N 27°55' W 082°25'0 0.0
2016-Apr-25 15:28N 27°55' W 082°25'0 0.0
2016-Apr-25 14:31N 27°55' W 082°25'0 0.0
2016-Apr-25 13:31N 27°55' W 082°25'0 0.0
2016-Apr-25 12:31N 27°55' W 082°25'0 0.0
2016-Apr-25 11:31N 27°55' W 082°25'0 0.0
2016-Apr-25 10:31N 27°55' W 082°25'0 0.0
2016-Apr-25 09:28N 27°55' W 082°25'0 0.0
2016-Apr-25 08:28N 27°55' W 082°25'0 0.0
2016-Apr-25 07:31N 27°55' W 082°25'0 0.0
2016-Apr-25 06:31N 27°55' W 082°25'0 0.0
2016-Apr-25 05:31N 27°55' W 082°25'0 0.0
2016-Apr-25 04:31N 27°55' W 082°25'0 0.0
2016-Apr-25 03:28N 27°55' W 082°25'0 0.0
2016-Apr-25 02:31N 27°55' W 082°25'0 0.0
2016-Apr-25 01:31N 27°55' W 082°25'0 0.0
2016-Apr-25 00:31N 27°55' W 082°25'0 0.0
2016-Apr-24 23:31N 27°55' W 082°25'0 0.0
2016-Apr-24 22:31N 27°55' W 082°25'0 0.0
2016-Apr-24 21:31N 27°55' W 082°25'4 4.1
2016-Apr-24 20:33N 27°51' W 082°27'3 3.1
2016-Apr-24 19:28N 27°48' W 082°25'0 0.0
2016-Apr-24 18:28N 27°48' W 082°25'0 0.0
2016-Apr-24 17:28N 27°48' W 082°25'0 0.0
2016-Apr-24 16:31N 27°48' W 082°25'0 0.0
2016-Apr-24 15:19N 27°48' W 082°25'0 0.0
2016-Apr-24 14:31N 27°48' W 082°25'0 0.0
2016-Apr-24 13:19N 27°48' W 082°25'0 0.0
2016-Apr-24 12:31N 27°48' W 082°25'0 0.0
2016-Apr-24 11:31N 27°48' W 082°25'0 0.0
2016-Apr-24 10:31N 27°48' W 082°25'0 0.0
2016-Apr-24 09:31N 27°48' W 082°25'0 0.0
2016-Apr-24 08:31N 27°48' W 082°25'0 0.0
2016-Apr-24 07:28N 27°48' W 082°25'0 0.0
2016-Apr-24 06:31N 27°48' W 082°25'0 0.0
2016-Apr-24 05:31N 27°48' W 082°25'0 0.0
2016-Apr-24 04:28N 27°48' W 082°25'0 0.0
2016-Apr-24 03:31N 27°48' W 082°25'1 0.6
2016-Apr-24 02:33N 27°48' W 082°25'0 0.0
2016-Apr-24 01:09N 27°48' W 082°25'0 0.0
2016-Apr-24 00:33N 27°48' W 082°25'0 0.0
2016-Apr-23 23:33N 27°48' W 082°25'0 0.0
2016-Apr-23 22:33N 27°48' W 082°25'0 0.0
2016-Apr-23 21:33N 27°48' W 082°25'0 0.0
2016-Apr-23 20:27N 27°48' W 082°25'0 0.0
2016-Apr-23 18:27N 27°48' W 082°25'0 0.0
2016-Apr-23 17:33N 27°48' W 082°25'0 0.0
2016-Apr-23 16:33N 27°48' W 082°25'0 0.0
2016-Apr-23 14:21N 27°48' W 082°25'0 0.0
2016-Apr-23 13:33N 27°48' W 082°25'0 0.0
2016-Apr-23 12:33N 27°48' W 082°25'0 0.0
2016-Apr-23 11:33N 27°48' W 082°25'0 0.0
2016-Apr-23 10:33N 27°48' W 082°25'0 0.0
2016-Apr-23 09:33N 27°48' W 082°25'0 0.0
2016-Apr-23 08:33N 27°48' W 082°25'0 0.0
2016-Apr-23 07:33N 27°48' W 082°25'0 0.0
2016-Apr-23 06:30N 27°48' W 082°25'0 0.0
2016-Apr-23 05:33N 27°48' W 082°25'0 0.0
2016-Apr-23 04:33N 27°48' W 082°25'0 0.0
2016-Apr-23 03:30N 27°48' W 082°25'0 0.0
2016-Apr-23 02:33N 27°48' W 082°25'0 0.0
2016-Apr-23 01:33N 27°48' W 082°25'0 0.0
2016-Apr-23 00:15N 27°48' W 082°25'0 0.0
2016-Apr-22 23:18N 27°48' W 082°25'0 0.0
2016-Apr-22 22:33N 27°48' W 082°25'0 0.0
2016-Apr-22 21:30N 27°48' W 082°25'0 0.0
2016-Apr-22 20:33N 27°48' W 082°25'0 0.0
2016-Apr-22 12:18N 27°48' W 082°25'0 0.0
2016-Apr-22 09:21N 27°48' W 082°25'0 0.0
2016-Apr-22 08:33N 27°48' W 082°25'0 0.0
2016-Apr-22 07:18N 27°48' W 082°25'0 0.0
2016-Apr-22 06:30N 27°48' W 082°25'0 0.0
2016-Apr-22 05:30N 27°48' W 082°25'0 0.0
2016-Apr-22 04:33N 27°48' W 082°25'0 0.0
2016-Apr-22 02:30N 27°48' W 082°25'0 0.0
2016-Apr-22 01:15N 27°48' W 082°25'0 0.0
2016-Apr-22 00:33N 27°48' W 082°25'0 0.0
2016-Apr-21 23:30N 27°48' W 082°25'0 0.0
2016-Apr-21 22:33N 27°48' W 082°25'0 0.0
2016-Apr-21 21:33N 27°48' W 082°25'0 0.0
2016-Apr-21 19:33N 27°48' W 082°25'0 0.0
2016-Apr-21 18:21N 27°48' W 082°25'0 0.0
2016-Apr-21 14:09N 27°48' W 082°25'0 0.0
2016-Apr-21 13:27N 27°48' W 082°25'0 0.0
2016-Apr-21 12:33N 27°48' W 082°25'0 0.0
2016-Apr-21 11:33N 27°48' W 082°25'0 0.0
2016-Apr-21 10:27N 27°48' W 082°25'0 0.0
2016-Apr-21 09:33N 27°48' W 082°25'0 0.0
2016-Apr-21 08:18N 27°48' W 082°25'0 0.0
2016-Apr-21 07:27N 27°48' W 082°25'0 0.0
2016-Apr-21 06:33N 27°48' W 082°25'0 0.0
2016-Apr-21 05:33N 27°48' W 082°25'0 0.0
2016-Apr-21 04:33N 27°48' W 082°25'0 0.0
2016-Apr-21 03:33N 27°48' W 082°25'0 0.0
2016-Apr-21 02:33N 27°48' W 082°25'0 0.0
2016-Apr-21 01:30N 27°48' W 082°25'0 0.0
2016-Apr-21 00:33N 27°48' W 082°25'0 0.0
2016-Apr-20 23:30N 27°48' W 082°25'0 0.0
2016-Apr-20 22:33N 27°48' W 082°25'0 0.0
2016-Apr-20 21:33N 27°48' W 082°25'0 0.0
2016-Apr-20 20:33N 27°48' W 082°25'0 0.0
2016-Apr-20 19:33N 27°48' W 082°25'0 0.0
2016-Apr-20 18:15N 27°48' W 082°25'0 0.0
2016-Apr-20 17:33N 27°48' W 082°25'0 0.0
2016-Apr-20 16:33N 27°48' W 082°25'0 0.0
2016-Apr-20 15:33N 27°48' W 082°25'0 0.0
2016-Apr-20 14:33N 27°48' W 082°25'0 0.0
2016-Apr-20 13:33N 27°48' W 082°25'0 0.0
2016-Apr-20 12:33N 27°48' W 082°25'  
Track history (hours):
 
Tides and Currents Weather Stations Pressure Air Temp Water Temp Dewpoint Dewpoint Depression Visibility Wind Speed Wind Dir Waves Ship Positions

Mississippi Enterprise

Owner: U.S. United Ocean Services, LLC, Tampa, FL. More information available from US FCC via Universal Licensing System and Coast Guard Vessel Documentation Center.

Last reported at 2016-Apr-27 13:33 UTC. Time now 2016-Apr-29 06:09 UTC.
Position N 29°56' W 090°04'.

Length 187 m; draft 11.2 m.

Type: Cargo ship. MMSI: 369813000.

Date/timePositionNaut miles runAvg speedWind from/ knotsBaromVisibWave heightAir tempDewpointWater temp
2016-Apr-27 13:33N 29°56' W 090°04'41910.5
2016-Apr-25 21:33N 27°50' W 082°27'5 5.0
2016-Apr-25 20:31N 27°55' W 082°25'0 0.0
2016-Apr-25 19:31N 27°55' W 082°25'0 0.0
2016-Apr-25 18:31N 27°55' W 082°25'0 0.0
2016-Apr-25 17:31N 27°55' W 082°25'0 0.0
2016-Apr-25 16:31N 27°55' W 082°25'0 0.0
2016-Apr-25 15:28N 27°55' W 082°25'0 0.0
2016-Apr-25 14:31N 27°55' W 082°25'0 0.0
2016-Apr-25 13:31N 27°55' W 082°25'0 0.0
2016-Apr-25 12:31N 27°55' W 082°25'0 0.0
2016-Apr-25 11:31N 27°55' W 082°25'0 0.0
2016-Apr-25 10:31N 27°55' W 082°25'0 0.0
2016-Apr-25 09:28N 27°55' W 082°25'0 0.0
2016-Apr-25 08:28N 27°55' W 082°25'0 0.0
2016-Apr-25 07:31N 27°55' W 082°25'0 0.0
2016-Apr-25 06:31N 27°55' W 082°25'0 0.0
2016-Apr-25 05:31N 27°55' W 082°25'0 0.0
2016-Apr-25 04:31N 27°55' W 082°25'0 0.0
2016-Apr-25 03:28N 27°55' W 082°25'0 0.0
2016-Apr-25 02:31N 27°55' W 082°25'0 0.0
2016-Apr-25 01:31N 27°55' W 082°25'0 0.0
2016-Apr-25 00:31N 27°55' W 082°25'0 0.0
2016-Apr-24 23:31N 27°55' W 082°25'0 0.0
2016-Apr-24 22:31N 27°55' W 082°25'0 0.0
2016-Apr-24 21:31N 27°55' W 082°25'4 4.1
2016-Apr-24 20:33N 27°51' W 082°27'3 3.1
2016-Apr-24 19:28N 27°48' W 082°25'0 0.0
2016-Apr-24 18:28N 27°48' W 082°25'0 0.0
2016-Apr-24 17:28N 27°48' W 082°25'0 0.0
2016-Apr-24 16:31N 27°48' W 082°25'0 0.0
2016-Apr-24 15:19N 27°48' W 082°25'0 0.0
2016-Apr-24 14:31N 27°48' W 082°25'0 0.0
2016-Apr-24 13:19N 27°48' W 082°25'0 0.0
2016-Apr-24 12:31N 27°48' W 082°25'0 0.0
2016-Apr-24 11:31N 27°48' W 082°25'0 0.0
2016-Apr-24 10:31N 27°48' W 082°25'0 0.0
2016-Apr-24 09:31N 27°48' W 082°25'0 0.0
2016-Apr-24 08:31N 27°48' W 082°25'0 0.0
2016-Apr-24 07:28N 27°48' W 082°25'0 0.0
2016-Apr-24 06:31N 27°48' W 082°25'0 0.0
2016-Apr-24 05:31N 27°48' W 082°25'0 0.0
2016-Apr-24 04:28N 27°48' W 082°25'0 0.0
2016-Apr-24 03:31N 27°48' W 082°25'1 0.6
2016-Apr-24 02:33N 27°48' W 082°25'0 0.0
2016-Apr-24 01:09N 27°48' W 082°25'0 0.0
2016-Apr-24 00:33N 27°48' W 082°25'0 0.0
2016-Apr-23 23:33N 27°48' W 082°25'0 0.0
2016-Apr-23 22:33N 27°48' W 082°25'0 0.0
2016-Apr-23 21:33N 27°48' W 082°25'0 0.0
2016-Apr-23 20:27N 27°48' W 082°25'0 0.0
2016-Apr-23 18:27N 27°48' W 082°25'0 0.0
2016-Apr-23 17:33N 27°48' W 082°25'0 0.0
2016-Apr-23 16:33N 27°48' W 082°25'0 0.0
2016-Apr-23 14:21N 27°48' W 082°25'0 0.0
2016-Apr-23 13:33N 27°48' W 082°25'0 0.0
2016-Apr-23 12:33N 27°48' W 082°25'0 0.0
2016-Apr-23 11:33N 27°48' W 082°25'0 0.0
2016-Apr-23 10:33N 27°48' W 082°25'0 0.0
2016-Apr-23 09:33N 27°48' W 082°25'0 0.0
2016-Apr-23 08:33N 27°48' W 082°25'0 0.0
2016-Apr-23 07:33N 27°48' W 082°25'0 0.0
2016-Apr-23 06:30N 27°48' W 082°25'0 0.0
2016-Apr-23 05:33N 27°48' W 082°25'0 0.0
2016-Apr-23 04:33N 27°48' W 082°25'0 0.0
2016-Apr-23 03:30N 27°48' W 082°25'0 0.0
2016-Apr-23 02:33N 27°48' W 082°25'0 0.0
2016-Apr-23 01:33N 27°48' W 082°25'0 0.0
2016-Apr-23 00:15N 27°48' W 082°25'0 0.0
2016-Apr-22 23:18N 27°48' W 082°25'0 0.0
2016-Apr-22 22:33N 27°48' W 082°25'0 0.0
2016-Apr-22 21:30N 27°48' W 082°25'0 0.0
2016-Apr-22 20:33N 27°48' W 082°25'0 0.0
2016-Apr-22 12:18N 27°48' W 082°25'0 0.0
2016-Apr-22 09:21N 27°48' W 082°25'0 0.0
2016-Apr-22 08:33N 27°48' W 082°25'0 0.0
2016-Apr-22 07:18N 27°48' W 082°25'0 0.0
2016-Apr-22 06:30N 27°48' W 082°25'0 0.0
2016-Apr-22 05:30N 27°48' W 082°25'0 0.0
2016-Apr-22 04:33N 27°48' W 082°25'0 0.0
2016-Apr-22 02:30N 27°48' W 082°25'0 0.0
2016-Apr-22 01:15N 27°48' W 082°25'0 0.0
2016-Apr-22 00:33N 27°48' W 082°25'0 0.0
2016-Apr-21 23:30N 27°48' W 082°25'0 0.0
2016-Apr-21 22:33N 27°48' W 082°25'0 0.0
2016-Apr-21 21:33N 27°48' W 082°25'0 0.0
2016-Apr-21 19:33N 27°48' W 082°25'0 0.0
2016-Apr-21 18:21N 27°48' W 082°25'0 0.0
2016-Apr-21 14:09N 27°48' W 082°25'0 0.0
2016-Apr-21 13:27N 27°48' W 082°25'0 0.0
2016-Apr-21 12:33N 27°48' W 082°25'0 0.0
2016-Apr-21 11:33N 27°48' W 082°25'0 0.0
2016-Apr-21 10:27N 27°48' W 082°25'0 0.0
2016-Apr-21 09:33N 27°48' W 082°25'0 0.0
2016-Apr-21 08:18N 27°48' W 082°25'0 0.0
2016-Apr-21 07:27N 27°48' W 082°25'0 0.0
2016-Apr-21 06:33N 27°48' W 082°25'0 0.0
2016-Apr-21 05:33N 27°48' W 082°25'0 0.0
2016-Apr-21 04:33N 27°48' W 082°25'0 0.0
2016-Apr-21 03:33N 27°48' W 082°25'0 0.0
2016-Apr-21 02:33N 27°48' W 082°25'0 0.0
2016-Apr-21 01:30N 27°48' W 082°25'0 0.0
2016-Apr-21 00:33N 27°48' W 082°25'0 0.0
2016-Apr-20 23:30N 27°48' W 082°25'0 0.0
2016-Apr-20 22:33N 27°48' W 082°25'0 0.0
2016-Apr-20 21:33N 27°48' W 082°25'0 0.0
2016-Apr-20 20:33N 27°48' W 082°25'0 0.0
2016-Apr-20 19:33N 27°48' W 082°25'0 0.0
2016-Apr-20 18:15N 27°48' W 082°25'0 0.0
2016-Apr-20 17:33N 27°48' W 082°25'0 0.0
2016-Apr-20 16:33N 27°48' W 082°25'0 0.0
2016-Apr-20 15:33N 27°48' W 082°25'0 0.0
2016-Apr-20 14:33N 27°48' W 082°25'0 0.0
2016-Apr-20 13:33N 27°48' W 082°25'0 0.0
2016-Apr-20 12:33N 27°48' W 082°25'  

Dump ship's entire track history